Time;durP1;ratioP1;P1;durP2;ratioP2;P2;SDS_P1;SDS_P2;PMS_P1;PMS_P2;Temp;Humidity;BMP_temperature;BMP_pressure;BME280_temperature;BME280_humidity;BME280_pressure;Samples;Min_cycle;Max_cycle;Signal;HPM_P1;HPM_P2
2023/09/10 00:01:08;;;;;;;11.50;10.00;;;;;;;14.97;87.96;100812.94;105315;1259;83650;-62
2023/09/10 00:03:56;;;;;;;10.80;9.70;;;;;;;14.96;88.04;100811.73;105258;1259;74634;-62
2023/09/10 00:06:23;;;;;;;11.10;9.70;;;;;;;14.95;88.13;100810.22;105307;1259;69179;-62
2023/09/10 00:08:50;;;;;;;10.20;9.20;;;;;;;14.93;88.08;100810.84;105368;1256;69189;-62
2023/09/10 00:11:17;;;;;;;13.70;9.40;;;;;;;14.90;88.12;100812.19;105282;1259;74731;-62
2023/09/10 00:13:44;;;;;;;11.60;8.50;;;;;;;14.88;88.13;100806.83;105308;1259;83265;-62
2023/09/10 00:16:10;;;;;;;12.00;9.10;;;;;;;14.87;88.17;100811.48;105304;1259;73680;-62
2023/09/10 00:18:37;;;;;;;12.60;9.80;;;;;;;14.85;88.26;100809.13;105311;1259;69196;-62
2023/09/10 00:21:05;;;;;;;11.80;9.80;;;;;;;14.85;88.63;100806.30;105302;1259;69212;-62
2023/09/10 00:23:32;;;;;;;11.00;9.70;;;;;;;14.87;88.74;100806.55;105266;1257;75951;-62
2023/09/10 00:25:59;;;;;;;10.30;9.10;;;;;;;14.87;88.87;100807.77;105314;1259;83532;-62
2023/09/10 00:28:26;;;;;;;10.80;9.20;;;;;;;14.87;88.90;100806.55;105240;1259;73936;-62
2023/09/10 00:30:54;;;;;;;10.80;9.40;;;;;;;14.86;88.98;100805.02;105304;1259;69202;-62
2023/09/10 00:33:21;;;;;;;11.10;9.50;;;;;;;14.87;88.98;100808.64;105217;1257;69165;-62
2023/09/10 00:35:48;;;;;;;11.00;9.60;;;;;;;14.85;88.90;100808.58;105256;1257;75556;-62
2023/09/10 00:38:15;;;;;;;11.50;9.20;;;;;;;14.82;88.79;100810.31;105312;1259;83248;-62
2023/09/10 00:40:42;;;;;;;10.90;9.40;;;;;;;14.78;88.81;100807.35;105328;1256;73625;-62
2023/09/10 00:43:09;;;;;;;16.10;10.10;;;;;;;14.76;88.88;100809.72;105299;1259;69122;-62
2023/09/10 00:45:36;;;;;;;12.80;10.20;;;;;;;14.73;88.95;100809.32;105235;1259;69202;-62
2023/09/10 00:48:04;;;;;;;11.00;9.80;;;;;;;14.71;88.99;100807.11;105165;1256;74767;-62
2023/09/10 00:50:31;;;;;;;12.70;9.80;;;;;;;14.70;89.08;100806.65;105300;1259;83224;-62
2023/09/10 00:52:59;;;;;;;13.80;11.00;;;;;;;14.70;89.20;100807.39;105324;1256;73574;-62
2023/09/10 00:55:29;;;;;;;12.80;10.00;;;;;;;14.67;89.10;100806.07;105321;1259;69311;-62
2023/09/10 00:57:57;;;;;;;13.00;11.00;;;;;;;14.68;89.25;100806.92;105317;1259;69200;-62
2023/09/10 01:00:24;;;;;;;12.50;11.10;;;;;;;14.66;89.16;100803.34;105323;1256;75707;-62
2023/09/10 01:02:52;;;;;;;15.90;11.60;;;;;;;14.64;89.30;100804.82;105156;1256;82349;-62
2023/09/10 01:05:19;;;;;;;12.00;10.80;;;;;;;14.66;89.56;100805.80;105338;1257;72803;-62
2023/09/10 01:07:46;;;;;;;15.50;12.60;;;;;;;14.69;90.01;100801.45;105236;1259;69222;-63
2023/09/10 01:10:13;;;;;;;13.50;11.90;;;;;;;14.71;89.84;100804.86;105300;1259;69259;-63
2023/09/10 01:12:54;;;;;;;18.40;15.70;;;;;;;14.73;90.40;100803.19;105276;1257;75739;-63
2023/09/10 01:15:36;;;;;;;20.70;16.30;;;;;;;14.85;91.22;100800.65;105169;1260;83458;-63
2023/09/10 01:18:27;;;;;;;20.70;16.50;;;;;;;14.98;91.89;100797.91;105261;1256;72702;-62
2023/09/10 01:21:17;;;;;;;22.50;16.60;;;;;;;15.16;92.58;100796.52;105354;1259;69205;-63
2023/09/10 01:24:09;;;;;;;19.10;15.90;;;;;;;15.35;93.08;100794.14;105336;1257;69168;-63
2023/09/10 01:26:37;;;;;;;19.30;15.90;;;;;;;15.49;92.97;100789.89;105337;1259;74555;-63
2023/09/10 01:29:04;;;;;;;16.90;14.40;;;;;;;15.56;92.32;100792.73;105233;1259;83393;-62
2023/09/10 01:31:34;;;;;;;16.00;14.30;;;;;;;15.56;91.77;100793.80;105266;1259;74346;-63
2023/09/10 01:34:04;;;;;;;19.00;15.40;;;;;;;15.58;91.70;100790.85;105073;1262;69202;-62
2023/09/10 01:36:38;;;;;;;18.30;16.00;;;;;;;15.64;91.92;100791.63;105158;1260;69206;-63
2023/09/10 01:39:36;;;;;;;21.90;16.50;;;;;;;15.72;92.23;100790.70;105296;1256;74462;-62
2023/09/10 01:42:05;;;;;;;17.40;15.40;;;;;;;15.76;91.66;100798.05;105313;1259;83604;-63
2023/09/10 01:44:36;;;;;;;18.50;16.20;;;;;;;15.77;91.70;100794.84;105238;1256;73632;-63
2023/09/10 01:47:03;;;;;;;17.50;15.30;;;;;;;15.81;91.74;100800.09;105274;1259;69294;-63
2023/09/10 01:49:31;;;;;;;20.50;16.10;;;;;;;15.83;91.72;100797.49;105177;1261;69182;-62
2023/09/10 01:51:58;;;;;;;21.20;16.60;;;;;;;15.88;92.03;100796.20;105287;1257;75475;-63
2023/09/10 01:54:25;;;;;;;19.50;16.30;;;;;;;15.94;92.14;100792.53;105275;1259;82718;-63
2023/09/10 01:56:52;;;;;;;19.30;16.60;;;;;;;16.01;92.34;100791.66;105336;1257;72642;-63
2023/09/10 01:59:19;;;;;;;23.70;17.00;;;;;;;16.06;92.30;100795.05;105276;1255;69094;-63
2023/09/10 02:01:45;;;;;;;20.40;16.70;;;;;;;16.11;92.36;100792.69;105363;1256;69275;-63
2023/09/10 02:04:13;;;;;;;20.20;16.50;;;;;;;16.14;92.17;100790.22;105255;1257;75753;-63
2023/09/10 02:06:40;;;;;;;18.40;15.30;;;;;;;16.15;92.03;100785.76;105317;1259;83321;-63
2023/09/10 02:09:06;;;;;;;18.50;16.10;;;;;;;16.17;91.92;100789.56;105243;1256;72727;-63
2023/09/10 02:11:33;;;;;;;20.90;15.70;;;;;;;16.16;91.68;100787.81;105145;1260;69152;-63
2023/09/10 02:14:00;;;;;;;16.00;14.00;;;;;;;16.12;91.07;100791.05;105236;1256;69199;-62
2023/09/10 02:16:27;;;;;;;16.30;14.60;;;;;;;16.02;90.29;100792.11;105199;1257;75491;-62
2023/09/10 02:18:54;;;;;;;18.70;14.50;;;;;;;15.92;89.96;100790.90;105244;1259;83280;-63
2023/09/10 02:21:21;;;;;;;16.80;15.00;;;;;;;15.80;89.52;100790.08;105114;1256;74108;-63
2023/09/10 02:23:48;;;;;;;17.00;14.80;;;;;;;15.70;89.51;100794.32;105311;1259;69112;-62
2023/09/10 02:26:15;;;;;;;15.60;14.10;;;;;;;15.60;89.54;100792.50;105250;1259;69330;-63
2023/09/10 02:28:43;;;;;;;20.50;15.60;;;;;;;15.53;89.60;100790.79;105242;1257;75585;-63
2023/09/10 02:31:10;;;;;;;17.60;15.30;;;;;;;15.45;89.53;100794.69;105251;1257;82394;-63
2023/09/10 02:33:37;;;;;;;15.80;14.20;;;;;;;15.37;89.47;100794.73;105251;1256;72620;-63
2023/09/10 02:36:05;;;;;;;17.70;15.50;;;;;;;15.28;89.29;100793.98;105222;1256;69158;-63
2023/09/10 02:38:32;;;;;;;18.70;14.50;;;;;;;15.18;89.24;100793.41;105318;1259;69755;-62
2023/09/10 02:40:59;;;;;;;18.50;15.00;;;;;;;15.08;89.16;100795.85;105231;1256;75505;-62
2023/09/10 02:43:26;;;;;;;20.10;14.70;;;;;;;14.99;89.11;100793.65;105219;1259;83351;-63
2023/09/10 02:45:53;;;;;;;15.80;13.90;;;;;;;14.90;89.12;100794.95;105302;1255;72570;-62
2023/09/10 02:48:21;;;;;;;15.70;14.10;;;;;;;14.80;89.08;100791.56;105304;1257;69180;-62
2023/09/10 02:50:48;;;;;;;16.00;13.40;;;;;;;14.72;89.11;100792.52;105301;1257;69138;-63
2023/09/10 02:53:15;;;;;;;17.50;14.40;;;;;;;14.63;89.07;100794.68;105276;1259;75063;-62
2023/09/10 02:55:42;;;;;;;16.80;14.10;;;;;;;14.56;89.20;100797.64;105243;1256;83536;-63
2023/09/10 02:58:09;;;;;;;17.10;14.70;;;;;;;14.49;89.13;100798.31;105245;1257;73776;-63
2023/09/10 03:00:36;;;;;;;18.70;15.00;;;;;;;14.43;89.33;100800.88;105223;1257;69210;-62
2023/09/10 03:03:04;;;;;;;16.30;13.70;;;;;;;14.38;89.55;100800.08;105254;1256;69246;-62
2023/09/10 03:05:33;;;;;;;18.30;14.80;;;;;;;14.34;89.52;100802.88;105203;1257;75767;-62
2023/09/10 03:08:00;;;;;;;18.50;14.30;;;;;;;14.28;89.51;100800.16;105249;1259;81479;-62
2023/09/10 03:10:28;;;;;;;15.90;13.90;;;;;;;14.22;89.59;100798.66;105306;1257;72655;-62
2023/09/10 03:12:55;;;;;;;16.70;14.70;;;;;;;14.19;89.79;100796.34;105304;1257;69178;-62
2023/09/10 03:15:22;;;;;;;17.00;14.30;;;;;;;14.15;89.78;100792.15;105266;1259;69122;-62
2023/09/10 03:17:49;;;;;;;19.30;14.70;;;;;;;14.10;89.83;100792.73;105160;1255;75862;-62
2023/09/10 03:20:17;;;;;;;16.70;13.70;;;;;;;14.04;89.70;100788.23;105297;1259;83307;-62
2023/09/10 03:22:44;;;;;;;16.80;13.80;;;;;;;14.01;89.87;100786.45;105255;1257;74019;-62
2023/09/10 03:25:11;;;;;;;14.60;13.10;;;;;;;13.96;89.78;100781.73;105243;1257;70762;-62
2023/09/10 03:27:38;;;;;;;15.50;13.20;;;;;;;13.91;89.94;100782.14;105093;1256;69118;-62
2023/09/10 03:30:06;;;;;;;14.90;12.60;;;;;;;13.87;90.02;100785.33;105310;1262;75577;-63
2023/09/10 03:32:33;;;;;;;14.90;13.10;;;;;;;13.82;90.04;100779.73;105295;1259;83296;-62
2023/09/10 03:35:05;;;;;;;14.10;12.40;;;;;;;13.77;90.09;100775.91;105284;1257;73455;-62
2023/09/10 03:37:32;;;;;;;17.60;13.70;;;;;;;13.73;90.05;100779.09;105318;1257;69283;-62
2023/09/10 03:39:59;;;;;;;16.00;14.30;;;;;;;13.68;90.17;100780.19;105268;1259;69153;-62
2023/09/10 03:42:26;;;;;;;15.10;12.60;;;;;;;13.64;90.17;100783.88;105278;1259;75924;-62
2023/09/10 03:44:53;;;;;;;18.90;15.50;;;;;;;13.59;90.24;100781.46;105286;1256;82394;-62
2023/09/10 03:47:20;;;;;;;20.80;15.50;;;;;;;13.55;90.43;100780.59;105262;1257;73706;-62
2023/09/10 03:49:47;;;;;;;22.90;17.40;;;;;;;13.54;90.85;100778.88;105201;1259;69552;-62
2023/09/10 03:52:16;;;;;;;19.30;16.20;;;;;;;13.53;90.92;100776.98;105238;1259;69212;-63
2023/09/10 03:54:43;;;;;;;16.90;14.90;;;;;;;13.50;90.73;100776.73;105320;1259;75770;-63
2023/09/10 03:57:11;;;;;;;19.40;14.10;;;;;;;13.47;90.85;100774.60;105266;1259;83170;-62
2023/09/10 03:59:38;;;;;;;15.40;13.50;;;;;;;13.44;90.79;100773.66;105253;1257;72526;-62
2023/09/10 04:02:06;;;;;;;17.30;13.60;;;;;;;13.41;90.51;100771.34;105168;1261;69199;-62
2023/09/10 04:04:33;;;;;;;15.50;13.20;;;;;;;13.36;90.61;100776.11;105267;1259;69167;-62
2023/09/10 04:07:01;;;;;;;13.80;12.40;;;;;;;13.32;90.69;100773.66;105197;1257;75444;-62
2023/09/10 04:09:29;;;;;;;14.20;11.90;;;;;;;13.30;90.73;100774.47;105201;1262;83278;-62
2023/09/10 04:11:57;;;;;;;16.20;12.60;;;;;;;13.26;90.80;100776.19;105252;1259;73645;-62
2023/09/10 04:14:26;;;;;;;16.30;12.40;;;;;;;13.23;90.91;100774.70;105283;1256;69093;-62
2023/09/10 04:16:53;;;;;;;13.20;11.70;;;;;;;13.24;91.02;100776.27;105170;1261;69200;-62
2023/09/10 04:19:22;;;;;;;16.10;12.20;;;;;;;13.21;90.81;100775.00;105215;1256;75551;-62
2023/09/10 04:21:48;;;;;;;14.00;12.50;;;;;;;13.16;90.70;100772.86;105252;1259;82317;-62
2023/09/10 04:24:15;;;;;;;13.70;12.30;;;;;;;13.12;90.93;100772.52;105114;1257;72670;-62
2023/09/10 04:26:43;;;;;;;13.90;12.40;;;;;;;13.13;91.19;100775.09;105203;1259;69063;-62
2023/09/10 04:29:10;;;;;;;16.10;12.60;;;;;;;13.13;91.12;100774.77;105222;1259;69138;-62
2023/09/10 04:31:42;;;;;;;15.40;13.30;;;;;;;13.12;91.45;100774.29;105133;1256;75652;-62
2023/09/10 04:34:11;;;;;;;15.20;13.00;;;;;;;13.13;91.47;100773.18;105197;1257;82302;-62
2023/09/10 04:36:38;;;;;;;15.10;13.10;;;;;;;13.12;91.56;100774.64;105210;1257;72756;-62
2023/09/10 04:39:09;;;;;;;16.10;12.40;;;;;;;13.10;91.35;100773.66;105248;1256;69236;-62
2023/09/10 04:41:38;;;;;;;14.70;12.50;;;;;;;13.09;91.42;100774.77;105283;1259;69349;-62
2023/09/10 04:44:05;;;;;;;13.70;12.30;;;;;;;13.08;91.54;100778.69;105246;1259;74674;-62
2023/09/10 04:46:32;;;;;;;14.30;12.90;;;;;;;13.09;91.67;100779.85;105266;1259;83696;-63
2023/09/10 04:48:59;;;;;;;15.70;13.40;;;;;;;13.10;91.85;100781.73;105164;1256;72718;-62
2023/09/10 04:51:27;;;;;;;16.20;13.00;;;;;;;13.11;91.93;100782.77;105252;1259;69134;-62
2023/09/10 04:53:55;;;;;;;16.50;14.00;;;;;;;13.12;92.12;100784.80;105239;1259;69275;-62
2023/09/10 04:56:22;;;;;;;17.80;13.40;;;;;;;13.13;92.16;100788.80;105216;1257;75597;-62
2023/09/10 04:58:50;;;;;;;15.30;13.50;;;;;;;13.13;92.18;100793.87;105277;1257;82497;-62
2023/09/10 05:01:17;;;;;;;18.30;14.00;;;;;;;13.15;92.41;100794.68;105400;1259;73867;-62
2023/09/10 05:03:44;;;;;;;18.10;15.40;;;;;;;13.19;92.94;100793.48;105212;1259;69177;-62
2023/09/10 05:06:13;;;;;;;17.90;14.70;;;;;;;13.26;93.26;100797.07;105347;1260;69173;-62
2023/09/10 05:08:41;;;;;;;17.90;15.50;;;;;;;13.30;93.43;100800.63;105247;1257;74588;-63
2023/09/10 05:11:08;;;;;;;19.40;15.20;;;;;;;13.35;93.71;100798.63;105322;1259;82700;-62
2023/09/10 05:13:36;;;;;;;18.50;16.00;;;;;;;13.39;93.61;100800.55;105271;1259;72602;-62
2023/09/10 05:16:03;;;;;;;17.20;15.30;;;;;;;13.44;93.72;100796.16;105139;1257;69211;-62
2023/09/10 05:18:30;;;;;;;20.70;15.40;;;;;;;13.48;93.87;100798.08;105231;1257;69154;-62
2023/09/10 05:20:58;;;;;;;19.90;15.60;;;;;;;13.52;94.08;100800.91;105161;1257;75420;-63
2023/09/10 05:23:26;;;;;;;19.50;15.70;;;;;;;13.58;94.06;100801.70;105246;1259;83584;-62
2023/09/10 05:25:54;;;;;;;22.00;18.40;;;;;;;13.65;94.60;100803.15;105282;1257;73023;-63
2023/09/10 05:28:22;;;;;;;22.80;20.10;;;;;;;13.77;95.57;100803.66;105287;1257;69109;-63
2023/09/10 05:30:49;;;;;;;22.60;19.20;;;;;;;13.92;96.05;100801.97;105266;1259;69243;-62
2023/09/10 05:33:16;;;;;;;26.40;22.10;;;;;;;14.01;96.24;100799.09;105240;1259;75652;-62
2023/09/10 05:35:44;;;;;;;22.70;20.30;;;;;;;14.14;96.69;100799.05;105237;1259;83480;-62
2023/09/10 05:38:11;;;;;;;25.40;21.50;;;;;;;14.26;96.94;100799.90;105151;1260;73840;-62
2023/09/10 05:40:38;;;;;;;25.40;22.40;;;;;;;14.38;97.35;100799.50;105265;1257;69259;-62
2023/09/10 05:43:06;;;;;;;23.90;21.00;;;;;;;14.51;97.63;100798.39;105271;1259;69133;-62
2023/09/10 05:45:35;;;;;;;28.00;21.40;;;;;;;14.63;97.75;100800.33;105290;1259;74604;-62
2023/09/10 05:48:02;;;;;;;23.90;21.40;;;;;;;14.74;97.82;100801.05;105286;1259;82376;-63
2023/09/10 05:50:30;;;;;;;27.60;21.20;;;;;;;14.84;98.06;100800.86;105225;1259;73647;-62
2023/09/10 05:52:58;;;;;;;24.70;20.00;;;;;;;14.94;98.17;100798.27;105245;1259;69851;-62
2023/09/10 05:55:25;;;;;;;24.20;21.30;;;;;;;15.05;98.19;100800.90;105149;1257;69116;-63
2023/09/10 05:57:53;;;;;;;24.00;20.70;;;;;;;15.15;98.31;100801.46;105252;1257;74720;-62
2023/09/10 06:00:21;;;;;;;23.40;21.00;;;;;;;15.25;98.39;100803.80;105273;1259;82218;-63
2023/09/10 06:02:49;;;;;;;25.80;21.40;;;;;;;15.36;98.48;100800.98;105268;1264;73697;-63
2023/09/10 06:05:17;;;;;;;23.20;19.80;;;;;;;15.46;98.66;100804.51;105257;1259;69199;-63
2023/09/10 06:07:44;;;;;;;22.40;20.00;;;;;;;15.57;98.59;100806.77;105234;1259;69142;-63
2023/09/10 06:10:12;;;;;;;21.80;18.70;;;;;;;15.66;98.65;100808.42;105283;1259;74561;-62
2023/09/10 06:12:39;;;;;;;21.90;19.10;;;;;;;15.76;98.66;100810.58;105303;1257;82516;-63
2023/09/10 06:15:07;;;;;;;21.00;18.80;;;;;;;15.86;98.69;100810.05;105283;1256;72695;-63
2023/09/10 06:17:35;;;;;;;21.00;18.10;;;;;;;15.95;98.69;100806.21;105224;1257;69118;-63
2023/09/10 06:20:04;;;;;;;21.70;18.80;;;;;;;16.06;98.76;100802.84;105238;1257;69149;-62
2023/09/10 06:22:31;;;;;;;19.20;17.10;;;;;;;16.16;98.71;100799.10;105256;1258;75595;-63
2023/09/10 06:24:58;;;;;;;19.60;16.20;;;;;;;16.28;98.60;100801.66;105193;1259;82411;-63
2023/09/10 06:27:25;;;;;;;19.00;17.00;;;;;;;16.36;98.35;100800.48;105189;1257;73856;-63
2023/09/10 06:29:52;;;;;;;20.90;16.80;;;;;;;16.46;98.43;100795.90;105143;1258;69119;-63
2023/09/10 06:32:19;;;;;;;21.90;16.60;;;;;;;16.55;98.16;100801.21;105168;1257;70853;-63
2023/09/10 06:34:46;;;;;;;16.90;15.10;;;;;;;16.64;97.91;100800.01;105373;1257;75734;-63
2023/09/10 06:37:14;;;;;;;21.60;16.00;;;;;;;16.74;97.82;100800.71;105183;1259;83629;-63
2023/09/10 06:39:42;;;;;;;19.40;15.40;;;;;;;16.83;97.81;100801.45;105365;1259;73890;-63
2023/09/10 06:42:13;;;;;;;16.80;14.10;;;;;;;16.92;97.63;100803.55;105074;1262;69258;-63
2023/09/10 06:44:43;;;;;;;17.00;13.90;;;;;;;17.03;97.55;100804.03;105222;1259;69157;-63
2023/09/10 06:47:11;;;;;;;18.10;13.90;;;;;;;17.10;97.09;100806.39;105203;1257;76264;-62
2023/09/10 06:49:38;;;;;;;15.90;13.70;;;;;;;17.21;97.06;100809.14;105235;1259;83272;-63
2023/09/10 06:52:09;;;;;;;14.80;13.20;;;;;;;17.29;96.55;100808.51;105182;1259;72771;-63
2023/09/10 06:54:36;;;;;;;16.50;13.40;;;;;;;17.38;96.31;100810.24;105297;1260;69233;-63
2023/09/10 06:57:04;;;;;;;15.70;12.50;;;;;;;17.47;95.98;100810.82;105169;1259;69272;-63
2023/09/10 06:59:30;;;;;;;14.60;13.10;;;;;;;17.55;95.67;100810.66;105220;1263;74536;-63
2023/09/10 07:01:57;;;;;;;14.80;12.70;;;;;;;17.64;95.43;100814.57;105230;1257;83563;-63
2023/09/10 07:04:25;;;;;;;13.80;12.30;;;;;;;17.73;95.17;100814.91;105237;1257;73911;-63
2023/09/10 07:06:52;;;;;;;13.40;11.70;;;;;;;17.82;95.09;100817.56;105254;1257;69161;-63
2023/09/10 07:09:22;;;;;;;14.30;11.10;;;;;;;17.91;94.73;100818.64;105291;1264;69165;-63
2023/09/10 07:11:53;;;;;;;14.20;12.10;;;;;;;18.00;94.67;100821.08;105233;1259;75921;-63
2023/09/10 07:14:21;;;;;;;18.40;12.70;;;;;;;18.11;94.69;100818.28;105256;1260;83603;-63
2023/09/10 07:16:48;;;;;;;17.80;12.00;;;;;;;18.21;94.62;100815.02;105216;1259;71631;-63
2023/09/10 07:19:16;;;;;;;14.10;12.00;;;;;;;18.31;94.46;100817.55;105265;1259;69074;-63
2023/09/10 07:21:43;;;;;;;13.80;12.10;;;;;;;18.42;94.52;100811.77;105185;1259;69164;-63
2023/09/10 07:24:10;;;;;;;13.70;12.20;;;;;;;18.53;94.70;100810.48;105224;1260;75573;-63
2023/09/10 07:26:37;;;;;;;14.00;12.40;;;;;;;18.64;94.58;100807.36;105165;1261;83323;-63
2023/09/10 07:29:05;;;;;;;14.60;12.00;;;;;;;18.77;94.72;100806.91;105194;1259;73712;-63
2023/09/10 07:31:33;;;;;;;14.50;12.50;;;;;;;18.88;94.54;100807.89;105301;1259;69237;-63
2023/09/10 07:34:01;;;;;;;13.70;11.90;;;;;;;19.00;94.22;100807.66;105220;1259;69098;-63
2023/09/10 07:36:29;;;;;;;14.70;12.50;;;;;;;19.11;94.15;100808.00;105213;1263;74685;-63
2023/09/10 07:38:56;;;;;;;14.20;11.30;;;;;;;19.23;93.95;100812.72;105278;1259;83284;-63
2023/09/10 07:41:23;;;;;;;14.60;11.70;;;;;;;19.35;93.79;100813.17;105228;1260;72778;-63
2023/09/10 07:43:50;;;;;;;14.00;11.30;;;;;;;19.46;93.67;100813.80;105169;1259;69120;-63
2023/09/10 07:46:17;;;;;;;13.80;10.50;;;;;;;19.58;93.54;100812.13;105196;1259;69123;-63
2023/09/10 07:48:44;;;;;;;14.60;10.90;;;;;;;19.71;93.26;100813.06;105265;1260;75585;-63
2023/09/10 07:51:12;;;;;;;12.30;10.80;;;;;;;19.83;92.98;100811.86;105255;1260;83616;-63
2023/09/10 07:53:38;;;;;;;12.10;10.20;;;;;;;19.95;92.81;100812.98;105245;1260;73632;-63
2023/09/10 07:56:06;;;;;;;11.70;10.50;;;;;;;20.07;92.47;100812.30;105217;1259;69222;-63
2023/09/10 07:58:33;;;;;;;12.60;10.70;;;;;;;20.20;92.37;100814.40;105131;1260;69170;-63
2023/09/10 08:01:00;;;;;;;12.10;10.50;;;;;;;20.35;92.14;100810.73;105177;1260;74558;-63
2023/09/10 08:03:28;;;;;;;13.40;10.20;;;;;;;20.50;92.11;100807.30;105235;1259;83332;-63
2023/09/10 08:05:56;;;;;;;11.10;9.60;;;;;;;20.66;91.72;100801.02;105311;1269;73749;-63
2023/09/10 08:08:23;;;;;;;12.50;10.00;;;;;;;20.81;91.43;100801.73;105193;1257;69131;-63
2023/09/10 08:10:50;;;;;;;13.40;10.70;;;;;;;20.94;91.05;100799.32;105373;1261;69201;-64
2023/09/10 08:13:17;;;;;;;11.60;9.00;;;;;;;21.08;90.90;100802.33;105296;1260;75608;-63
2023/09/10 08:15:44;;;;;;;13.00;10.50;;;;;;;21.26;90.58;100806.19;105230;1259;82023;-63
2023/09/10 08:18:11;;;;;;;10.60;8.90;;;;;;;21.41;90.03;100804.34;105216;1257;73607;-63
2023/09/10 08:20:42;;;;;;;12.40;9.00;;;;;;;21.58;89.75;100810.01;105165;1263;69212;-63
2023/09/10 08:23:10;;;;;;;10.10;9.00;;;;;;;21.75;89.38;100814.16;105218;1259;69327;-63
2023/09/10 08:25:37;;;;;;;10.50;9.50;;;;;;;21.92;89.19;100815.55;105290;1260;74589;-63
2023/09/10 08:28:04;;;;;;;10.70;8.90;;;;;;;22.08;88.47;100815.75;105180;1269;83267;-63
2023/09/10 08:30:31;;;;;;;10.70;9.50;;;;;;;22.21;87.95;100816.12;105229;1260;73595;-63
2023/09/10 08:32:58;;;;;;;11.90;9.70;;;;;;;22.36;87.50;100819.10;105238;1259;69231;-63
2023/09/10 08:35:44;;;;;;;12.60;9.40;;;;;;;22.51;87.16;100818.23;105266;1260;69211;-63
2023/09/10 08:38:10;;;;;;;9.90;8.90;;;;;;;22.69;86.55;100814.41;105293;1259;74394;-63
2023/09/10 08:40:43;;;;;;;12.60;9.00;;;;;;;22.87;86.23;100814.54;105244;1259;83661;-63
2023/09/10 08:43:11;;;;;;;10.60;9.10;;;;;;;23.02;85.59;100813.33;105231;1259;72072;-63
2023/09/10 08:45:38;;;;;;;11.00;8.80;;;;;;;23.18;85.25;100808.80;105143;1270;69145;-63
2023/09/10 08:48:05;;;;;;;10.10;9.00;;;;;;;23.36;84.82;100808.17;105278;1260;69122;-63
2023/09/10 08:50:33;;;;;;;10.10;8.90;;;;;;;23.54;84.50;100808.30;105185;1270;75757;-63
2023/09/10 08:53:01;;;;;;;10.90;8.30;;;;;;;23.74;84.04;100804.30;105197;1261;83385;-63
2023/09/10 08:55:30;;;;;;;9.10;8.20;;;;;;;23.93;83.43;100802.11;105335;1257;72656;-63
2023/09/10 08:57:57;;;;;;;10.70;8.20;;;;;;;24.12;82.79;100800.23;105311;1260;69192;-63
2023/09/10 09:00:24;;;;;;;10.60;8.80;;;;;;;24.30;82.15;100798.48;105248;1258;69175;-63
2023/09/10 09:02:52;;;;;;;11.70;8.50;;;;;;;24.46;81.51;100793.70;105223;1259;75438;-63
2023/09/10 09:05:19;;;;;;;11.00;8.50;;;;;;;24.63;80.82;100788.64;105311;1260;82852;-63
2023/09/10 09:07:57;;;;;;;9.80;8.60;;;;;;;24.78;80.28;100789.23;105233;1260;72560;-63
2023/09/10 09:10:25;;;;;;;9.00;8.00;;;;;;;24.95;79.48;100789.50;105200;1260;69231;-63
2023/09/10 09:13:04;;;;;;;9.40;8.40;;;;;;;25.11;79.30;100790.70;105302;1262;69148;-63
2023/09/10 09:15:32;;;;;;;9.20;7.80;;;;;;;25.30;78.87;100787.48;105308;1259;74619;-63
2023/09/10 09:18:00;;;;;;;9.70;8.40;;;;;;;25.52;78.33;100787.09;105350;1258;83645;-63
2023/09/10 09:20:30;;;;;;;10.10;7.90;;;;;;;25.71;77.64;100790.15;105300;1261;73653;-63
2023/09/10 09:23:05;;;;;;;9.00;8.00;;;;;;;25.89;77.05;100792.21;105291;1261;69119;-63
2023/09/10 09:25:34;;;;;;;8.90;7.70;;;;;;;26.04;76.37;100792.19;105311;1260;69214;-63
2023/09/10 09:28:02;;;;;;;10.70;7.90;;;;;;;26.20;76.06;100788.28;105181;1258;75623;-63
2023/09/10 09:30:29;;;;;;;10.00;7.90;;;;;;;26.42;75.79;100783.85;105202;1257;82527;-63
2023/09/10 09:32:56;;;;;;;8.60;7.70;;;;;;;26.64;75.00;100781.52;105254;1260;73662;-63
2023/09/10 09:35:24;;;;;;;11.80;8.60;;;;;;;26.83;74.34;100775.36;105364;1261;69647;-63
2023/09/10 09:37:51;;;;;;;8.60;7.70;;;;;;;27.01;73.77;100773.55;105348;1259;69122;-63
2023/09/10 09:40:21;;;;;;;8.30;7.50;;;;;;;27.22;73.17;100772.33;105273;1259;76047;-63
2023/09/10 09:42:49;;;;;;;8.50;7.50;;;;;;;27.44;72.65;100768.48;105442;1260;83577;-64
2023/09/10 09:45:21;;;;;;;7.90;7.10;;;;;;;27.68;72.29;100763.85;105232;1261;73950;-64
2023/09/10 09:47:48;;;;;;;7.30;6.60;;;;;;;27.88;71.05;100764.36;105329;1260;69162;-63
2023/09/10 09:50:16;;;;;;;8.20;7.30;;;;;;;28.04;70.61;100759.21;105299;1259;69150;-63
2023/09/10 09:52:50;;;;;;;7.30;6.60;;;;;;;28.21;69.73;100759.75;105362;1261;75506;-63
2023/09/10 09:55:17;;;;;;;7.50;6.80;;;;;;;28.39;68.99;100757.81;105315;1262;83317;-64
2023/09/10 09:57:50;;;;;;;8.10;6.90;;;;;;;28.55;68.24;100754.33;105226;1257;72472;-63
2023/09/10 10:00:18;;;;;;;6.80;6.10;;;;;;;28.72;67.48;100753.59;105287;1257;69072;-63
2023/09/10 10:02:45;;;;;;;7.70;6.30;;;;;;;28.89;66.87;100754.77;105322;1258;69279;-63
2023/09/10 10:05:13;;;;;;;9.30;6.80;;;;;;;29.12;66.31;100754.64;105268;1258;75630;-63
2023/09/10 10:07:41;;;;;;;7.90;6.30;;;;;;;29.36;65.63;100754.13;105213;1260;83207;-63
2023/09/10 10:10:19;;;;;;;6.30;5.70;;;;;;;29.66;64.93;100757.09;105243;1260;73712;-64
2023/09/10 10:12:47;;;;;;;6.40;5.70;;;;;;;29.92;63.57;100754.03;105311;1260;69202;-64
2023/09/10 10:15:14;;;;;;;6.50;5.90;;;;;;;30.16;62.64;100751.15;105230;1260;69180;-64
2023/09/10 10:17:44;;;;;;;9.70;5.80;;;;;;;30.45;61.65;100751.60;105172;1257;75777;-64
2023/09/10 10:20:12;;;;;;;9.30;5.40;;;;;;;30.69;60.55;100746.79;105234;1260;83731;-64
2023/09/10 10:22:40;;;;;;;8.30;5.70;;;;;;;30.88;59.81;100742.75;105277;1258;72658;-64
2023/09/10 10:25:07;;;;;;;5.30;4.80;;;;;;;31.10;58.47;100741.38;105210;1260;69169;-63
2023/09/10 10:27:35;;;;;;;6.50;5.30;;;;;;;31.37;57.52;100744.58;105337;1261;69121;-63
2023/09/10 10:30:06;;;;;;;5.80;5.10;;;;;;;31.54;56.54;100742.17;105259;1260;75891;-64
2023/09/10 10:32:39;;;;;;;8.50;4.40;;;;;;;31.72;55.56;100740.90;105255;1258;83372;-64
2023/09/10 10:35:09;;;;;;;7.00;4.20;;;;;;;32.02;54.58;100742.42;105251;1257;73609;-64
2023/09/10 10:37:42;;;;;;;5.90;4.20;;;;;;;32.35;53.45;100736.95;105222;1260;69112;-64
2023/09/10 10:40:16;;;;;;;7.70;4.90;;;;;;;32.68;52.40;100738.74;105226;1260;69227;-63
2023/09/10 10:42:50;;;;;;;4.60;4.10;;;;;;;32.92;51.29;100736.05;105298;1258;74648;-64
2023/09/10 10:45:18;;;;;;;4.60;4.00;;;;;;;33.18;49.78;100733.63;105273;1258;83426;-64
2023/09/10 10:47:49;;;;;;;5.30;4.10;;;;;;;33.46;48.64;100736.51;105281;1260;73724;-64
2023/09/10 10:50:31;;;;;;;4.90;3.60;;;;;;;33.59;47.54;100734.85;105285;1260;69123;-64
2023/09/10 10:52:59;;;;;;;4.30;3.70;;;;;;;33.77;46.65;100733.75;105306;1259;69152;-64
2023/09/10 10:55:27;;;;;;;4.90;3.50;;;;;;;34.02;46.02;100728.05;105353;1258;74746;-64
2023/09/10 10:57:54;;;;;;;6.20;4.30;;;;;;;34.14;44.91;100725.66;105163;1260;82413;-63
2023/09/10 11:00:22;;;;;;;4.60;4.20;;;;;;;34.25;44.50;100724.87;105317;1260;73667;-64
2023/09/10 11:03:07;;;;;;;5.00;3.70;;;;;;;34.29;43.67;100727.63;105296;1259;69229;-64
2023/09/10 11:06:04;;;;;;;5.90;4.00;;;;;;;34.21;43.35;100728.13;105257;1257;71414;-64
2023/09/10 11:08:38;;;;;;;4.70;4.20;;;;;;;34.47;43.09;100726.89;105279;1260;75814;-64
2023/09/10 11:11:08;;;;;;;4.70;3.60;;;;;;;34.72;42.16;100729.89;105417;1257;83448;-64